Time;durP1;ratioP1;P1;durP2;ratioP2;P2;SDS_P1;SDS_P2;PMS_P1;PMS_P2;Temp;Humidity;BMP_temperature;BMP_pressure;BME280_temperature;BME280_humidity;BME280_pressure;Samples;Min_cycle;Max_cycle;Signal;HPM_P1;HPM_P2
2022/03/15 00:02:09;;;;;;;53.93;21.07;;;;;;;;;;5049508;28;20041;-66
2022/03/15 00:04:35;;;;;;;51.93;20.67;;;;;;;;;;5039902;28;20547;-66
2022/03/15 00:07:01;;;;;;;49.73;21.13;;;;;;;;;;5039905;28;20417;-65
2022/03/15 00:09:27;;;;;;;46.97;19.67;;;;;;;;;;5036404;28;20064;-66
2022/03/15 00:11:54;;;;;;;49.20;19.90;;;;;;;;;;5040383;28;20577;-66
2022/03/15 00:14:20;;;;;;;39.77;19.73;;;;;;;;;;5038129;28;20044;-66
2022/03/15 00:16:47;;;;;;;36.27;19.53;;;;;;;;;;5041545;28;20044;-66
2022/03/15 00:19:13;;;;;;;44.97;18.70;;;;;;;;;;5037186;28;20287;-66
2022/03/15 00:21:39;;;;;;;63.63;28.17;;;;;;;;;;5048824;28;20551;-66
2022/03/15 00:24:06;;;;;;;44.10;23.13;;;;;;;;;;5047333;28;20299;-66
2022/03/15 00:26:32;;;;;;;49.00;25.07;;;;;;;;;;5047932;28;20049;-66
2022/03/15 00:28:58;;;;;;;58.83;27.97;;;;;;;;;;5046322;28;20053;-67
2022/03/15 00:31:24;;;;;;;61.07;28.43;;;;;;;;;;5045835;28;20052;-66
2022/03/15 00:33:50;;;;;;;58.47;28.73;;;;;;;;;;5048782;28;20040;-66
2022/03/15 00:36:17;;;;;;;56.23;29.13;;;;;;;;;;5048596;28;20292;-66
2022/03/15 00:38:43;;;;;;;54.97;26.23;;;;;;;;;;5048889;28;20098;-66
2022/03/15 00:41:09;;;;;;;44.17;22.43;;;;;;;;;;5048868;28;20048;-66
2022/03/15 00:43:36;;;;;;;54.70;22.63;;;;;;;;;;5048903;28;20033;-66
2022/03/15 00:46:02;;;;;;;42.27;22.13;;;;;;;;;;5049040;28;20284;-66
2022/03/15 00:48:28;;;;;;;59.07;29.70;;;;;;;;;;5048852;28;20090;-66
2022/03/15 00:50:54;;;;;;;61.83;26.27;;;;;;;;;;5048428;28;20052;-66
2022/03/15 00:53:21;;;;;;;66.63;27.93;;;;;;;;;;5050398;28;20041;-66
2022/03/15 00:55:47;;;;;;;51.87;24.00;;;;;;;;;;5055427;28;20140;-66
2022/03/15 00:58:13;;;;;;;55.77;25.23;;;;;;;;;;5055535;28;20375;-66
2022/03/15 01:00:41;;;;;;;59.47;24.87;;;;;;;;;;5054872;28;20288;-66
2022/03/15 01:03:07;;;;;;;50.23;22.97;;;;;;;;;;5054616;28;20533;-66
2022/03/15 01:05:33;;;;;;;48.97;21.70;;;;;;;;;;5055294;28;20044;-66
2022/03/15 01:07:59;;;;;;;45.77;22.53;;;;;;;;;;5055318;28;20055;-66
2022/03/15 01:10:26;;;;;;;64.73;27.90;;;;;;;;;;5054467;28;20053;-66
2022/03/15 01:12:52;;;;;;;50.60;24.57;;;;;;;;;;5055178;28;20057;-66
2022/03/15 01:15:18;;;;;;;52.63;24.40;;;;;;;;;;5055398;28;20045;-66
2022/03/15 01:17:44;;;;;;;48.63;22.63;;;;;;;;;;5055036;28;20055;-66
2022/03/15 01:20:10;;;;;;;54.27;26.67;;;;;;;;;;5054485;28;20124;-66
2022/03/15 01:22:37;;;;;;;43.97;20.83;;;;;;;;;;5054751;28;20110;-66
2022/03/15 01:25:03;;;;;;;56.90;23.73;;;;;;;;;;5055015;28;20044;-66
2022/03/15 01:27:29;;;;;;;53.23;26.60;;;;;;;;;;5055238;28;20072;-66
2022/03/15 01:29:57;;;;;;;50.83;23.70;;;;;;;;;;5055287;28;20045;-66
2022/03/15 01:32:23;;;;;;;53.83;26.43;;;;;;;;;;5054605;28;20064;-66
2022/03/15 01:34:49;;;;;;;74.63;28.23;;;;;;;;;;5054581;28;20045;-65
2022/03/15 01:37:15;;;;;;;59.77;26.03;;;;;;;;;;5055071;28;20058;-66
2022/03/15 01:39:42;;;;;;;49.27;24.93;;;;;;;;;;5054890;28;20515;-66
2022/03/15 01:42:09;;;;;;;51.20;25.07;;;;;;;;;;5054828;28;20051;-66
2022/03/15 01:44:36;;;;;;;62.63;27.63;;;;;;;;;;5054763;28;20051;-66
2022/03/15 01:47:02;;;;;;;58.27;28.73;;;;;;;;;;5054649;28;20116;-66
2022/03/15 01:49:29;;;;;;;74.33;35.70;;;;;;;;;;5054552;28;20047;-66
2022/03/15 01:51:55;;;;;;;76.13;31.97;;;;;;;;;;5054826;28;20041;-66
2022/03/15 01:54:21;;;;;;;81.03;34.70;;;;;;;;;;5054919;28;20053;-66
2022/03/15 01:56:47;;;;;;;75.80;32.93;;;;;;;;;;5054246;28;20337;-66
2022/03/15 01:59:14;;;;;;;69.47;30.53;;;;;;;;;;5054861;28;20495;-66
2022/03/15 02:01:41;;;;;;;80.40;33.47;;;;;;;;;;5052842;28;20811;-66
2022/03/15 02:04:07;;;;;;;69.07;34.40;;;;;;;;;;5054341;28;20076;-66
2022/03/15 02:06:42;;;;;;;76.63;32.93;;;;;;;;;;5050454;28;20072;-66
2022/03/15 02:09:12;;;;;;;84.17;35.47;;;;;;;;;;5051394;28;20056;-66
2022/03/15 02:11:39;;;;;;;85.07;37.77;;;;;;;;;;5049778;28;20544;-66
2022/03/15 02:14:05;;;;;;;89.87;39.00;;;;;;;;;;5050997;28;20049;-66
2022/03/15 02:16:32;;;;;;;94.87;37.33;;;;;;;;;;5051309;28;20057;-66
2022/03/15 02:18:59;;;;;;;82.17;37.53;;;;;;;;;;5051021;28;20123;-66
2022/03/15 02:21:29;;;;;;;92.13;39.13;;;;;;;;;;5051140;28;20869;-66
2022/03/15 02:23:55;;;;;;;91.40;39.23;;;;;;;;;;5050576;28;20049;-66
2022/03/15 02:26:21;;;;;;;86.50;36.10;;;;;;;;;;5051380;28;20052;-66
2022/03/15 02:28:47;;;;;;;99.90;39.20;;;;;;;;;;5051146;28;20132;-66
2022/03/15 02:31:14;;;;;;;89.90;35.33;;;;;;;;;;5050509;28;20522;-66
2022/03/15 02:33:40;;;;;;;97.03;41.93;;;;;;;;;;5051180;28;20052;-66
2022/03/15 02:36:06;;;;;;;117.23;45.57;;;;;;;;;;5051293;28;20484;-66
2022/03/15 02:38:32;;;;;;;97.70;38.37;;;;;;;;;;5051416;28;20052;-66
2022/03/15 02:40:58;;;;;;;107.30;41.17;;;;;;;;;;5051130;28;20087;-66
2022/03/15 02:43:24;;;;;;;66.87;28.33;;;;;;;;;;5051071;28;20037;-66
2022/03/15 02:45:50;;;;;;;93.43;35.33;;;;;;;;;;5050705;28;20048;-66
2022/03/15 02:48:17;;;;;;;83.20;34.57;;;;;;;;;;5050613;28;20561;-66
2022/03/15 02:50:43;;;;;;;108.80;41.33;;;;;;;;;;5050892;28;20502;-66
2022/03/15 02:53:09;;;;;;;82.17;36.30;;;;;;;;;;5050515;28;20041;-66
2022/03/15 02:55:35;;;;;;;69.60;29.03;;;;;;;;;;5050317;28;20407;-66
2022/03/15 02:58:02;;;;;;;93.27;39.33;;;;;;;;;;5050704;28;20102;-66
2022/03/15 03:00:29;;;;;;;115.77;42.53;;;;;;;;;;5050352;28;20041;-66
2022/03/15 03:02:55;;;;;;;90.17;36.53;;;;;;;;;;5050421;28;20291;-66
2022/03/15 03:05:21;;;;;;;66.27;30.00;;;;;;;;;;5050651;28;20781;-66
2022/03/15 03:07:47;;;;;;;63.77;29.17;;;;;;;;;;5050617;28;20342;-66
2022/03/15 03:10:16;;;;;;;89.43;36.37;;;;;;;;;;5048900;28;20087;-67
2022/03/15 03:12:42;;;;;;;91.93;37.20;;;;;;;;;;5050089;28;20495;-66
2022/03/15 03:15:12;;;;;;;98.87;38.17;;;;;;;;;;5049820;28;20630;-66
2022/03/15 03:17:41;;;;;;;96.03;37.67;;;;;;;;;;5050122;28;20407;-66
2022/03/15 03:20:12;;;;;;;110.33;41.77;;;;;;;;;;5050617;28;20295;-66
2022/03/15 03:22:39;;;;;;;104.37;40.10;;;;;;;;;;5049467;28;20056;-66
2022/03/15 03:25:05;;;;;;;116.33;43.00;;;;;;;;;;5050275;28;20284;-66
2022/03/15 03:27:32;;;;;;;121.17;44.03;;;;;;;;;;5049999;28;20341;-66
2022/03/15 03:29:58;;;;;;;96.30;38.07;;;;;;;;;;5050356;28;20064;-66
2022/03/15 03:32:27;;;;;;;124.47;47.97;;;;;;;;;;5050295;28;20057;-66
2022/03/15 03:34:57;;;;;;;98.23;42.67;;;;;;;;;;5043724;28;20060;-66
2022/03/15 03:37:24;;;;;;;101.43;43.27;;;;;;;;;;5050009;28;20295;-66
2022/03/15 03:39:51;;;;;;;83.70;37.93;;;;;;;;;;5050107;28;20047;-66
2022/03/15 03:42:18;;;;;;;88.97;41.47;;;;;;;;;;5049193;28;20052;-66
2022/03/15 03:44:44;;;;;;;83.53;36.67;;;;;;;;;;5049720;28;20068;-66
2022/03/15 03:47:11;;;;;;;76.37;35.60;;;;;;;;;;5049839;28;20279;-66
2022/03/15 03:49:37;;;;;;;65.93;32.57;;;;;;;;;;5049286;28;20359;-66
2022/03/15 03:52:05;;;;;;;95.73;40.40;;;;;;;;;;5049422;28;20292;-66
2022/03/15 03:54:32;;;;;;;88.90;37.20;;;;;;;;;;5049760;28;20041;-66
2022/03/15 03:56:58;;;;;;;70.40;33.97;;;;;;;;;;5048843;28;20040;-66
2022/03/15 03:59:24;;;;;;;92.70;35.93;;;;;;;;;;5047630;28;20291;-66
2022/03/15 04:01:50;;;;;;;83.30;40.60;;;;;;;;;;5037265;28;20483;-66
2022/03/15 04:04:16;;;;;;;99.87;41.73;;;;;;;;;;5048388;28;20374;-67
2022/03/15 04:06:43;;;;;;;109.80;46.03;;;;;;;;;;5049632;28;20053;-67
2022/03/15 04:09:10;;;;;;;110.43;48.17;;;;;;;;;;5048981;28;20677;-66
2022/03/15 04:11:36;;;;;;;142.20;55.37;;;;;;;;;;5048745;28;20669;-66
2022/03/15 04:14:03;;;;;;;116.43;47.27;;;;;;;;;;5049457;28;20076;-66
2022/03/15 04:16:30;;;;;;;111.43;46.03;;;;;;;;;;5049351;28;20502;-66
2022/03/15 04:18:56;;;;;;;128.50;53.90;;;;;;;;;;5048895;28;20376;-66
2022/03/15 04:21:25;;;;;;;140.37;57.67;;;;;;;;;;5048103;28;20107;-66
2022/03/15 04:23:51;;;;;;;153.83;64.07;;;;;;;;;;5048831;28;20287;-66
2022/03/15 04:26:18;;;;;;;186.57;68.63;;;;;;;;;;5048643;28;20052;-66
2022/03/15 04:28:44;;;;;;;164.03;65.00;;;;;;;;;;5048219;28;20098;-66
2022/03/15 04:31:10;;;;;;;158.50;61.00;;;;;;;;;;5048589;28;20059;-66
2022/03/15 04:33:36;;;;;;;185.67;69.97;;;;;;;;;;5048134;28;20762;-66
2022/03/15 04:36:02;;;;;;;135.40;54.87;;;;;;;;;;5048846;28;20048;-66
2022/03/15 04:38:28;;;;;;;91.73;36.60;;;;;;;;;;5048530;28;20166;-66
2022/03/15 04:40:54;;;;;;;92.30;36.90;;;;;;;;;;5048907;28;20128;-66
2022/03/15 04:43:21;;;;;;;88.37;38.60;;;;;;;;;;5048680;28;20081;-66
2022/03/15 04:45:47;;;;;;;97.77;39.17;;;;;;;;;;5048871;28;20096;-66
2022/03/15 04:48:13;;;;;;;103.73;41.83;;;;;;;;;;5048407;28;20043;-66
2022/03/15 04:50:40;;;;;;;132.07;50.20;;;;;;;;;;5047985;28;20056;-66
2022/03/15 04:53:06;;;;;;;123.50;49.40;;;;;;;;;;5034827;28;20059;-66
2022/03/15 04:55:32;;;;;;;100.53;41.47;;;;;;;;;;5044220;28;20106;-66
2022/03/15 04:57:58;;;;;;;93.07;40.53;;;;;;;;;;5046728;28;20057;-66
2022/03/15 05:00:24;;;;;;;84.20;37.77;;;;;;;;;;5047822;28;20053;-66
2022/03/15 05:02:50;;;;;;;100.33;41.83;;;;;;;;;;5047908;28;20131;-66
2022/03/15 05:05:16;;;;;;;89.20;38.97;;;;;;;;;;5047915;28;20811;-66
2022/03/15 05:07:42;;;;;;;84.10;37.37;;;;;;;;;;5047654;28;20095;-66
2022/03/15 05:12:53;;;;;;;90.23;37.70;;;;;;;;;;5039575;28;20069;-66
2022/03/15 05:15:20;;;;;;;87.10;37.77;;;;;;;;;;5038603;28;20037;-66
2022/03/15 05:17:46;;;;;;;97.17;43.47;;;;;;;;;;5039303;28;20045;-66
2022/03/15 05:20:14;;;;;;;101.17;46.00;;;;;;;;;;5037501;28;20462;-68
2022/03/15 05:22:43;;;;;;;118.90;49.43;;;;;;;;;;5036856;28;20045;-66
2022/03/15 05:25:09;;;;;;;103.17;45.53;;;;;;;;;;5037720;28;20052;-66
2022/03/15 05:27:36;;;;;;;85.73;39.63;;;;;;;;;;5036171;28;20048;-66
2022/03/15 05:30:02;;;;;;;90.63;39.03;;;;;;;;;;5037843;28;20044;-66
2022/03/15 05:32:28;;;;;;;93.23;40.43;;;;;;;;;;5039200;28;20061;-66
2022/03/15 05:34:54;;;;;;;113.33;48.20;;;;;;;;;;5040119;28;20056;-66
2022/03/15 05:37:21;;;;;;;96.07;43.47;;;;;;;;;;5035434;28;20041;-66
2022/03/15 05:39:47;;;;;;;147.47;57.67;;;;;;;;;;5039143;28;20049;-66
2022/03/15 05:42:13;;;;;;;125.00;53.03;;;;;;;;;;5042091;28;20553;-66
2022/03/15 05:44:40;;;;;;;147.83;61.50;;;;;;;;;;5045407;28;20044;-66
2022/03/15 05:47:06;;;;;;;156.90;63.40;;;;;;;;;;5039249;28;20045;-66
2022/03/15 05:49:32;;;;;;;151.47;63.73;;;;;;;;;;5041097;28;20126;-66
2022/03/15 05:51:58;;;;;;;154.73;64.17;;;;;;;;;;5040846;28;20046;-66
2022/03/15 05:54:24;;;;;;;165.07;68.27;;;;;;;;;;5040257;28;20769;-66
2022/03/15 05:56:50;;;;;;;136.57;62.47;;;;;;;;;;5041464;28;20045;-66
2022/03/15 05:59:16;;;;;;;134.77;60.60;;;;;;;;;;5044963;28;20052;-66
2022/03/15 06:01:43;;;;;;;146.10;65.50;;;;;;;;;;5051144;28;21456;-66
2022/03/15 06:04:10;;;;;;;130.07;62.03;;;;;;;;;;5051678;28;20423;-66
2022/03/15 06:06:36;;;;;;;136.23;60.33;;;;;;;;;;5050108;28;20624;-66
2022/03/15 06:09:03;;;;;;;156.33;63.50;;;;;;;;;;5051469;28;20068;-66
2022/03/15 06:11:31;;;;;;;119.53;55.20;;;;;;;;;;5049988;28;20045;-66
2022/03/15 06:13:57;;;;;;;124.43;55.23;;;;;;;;;;5049735;28;20498;-66
2022/03/15 06:16:23;;;;;;;122.70;57.27;;;;;;;;;;5051076;28;20045;-66
2022/03/15 06:18:50;;;;;;;126.33;56.57;;;;;;;;;;5049704;28;20045;-66
2022/03/15 06:21:16;;;;;;;115.63;54.10;;;;;;;;;;5050913;28;20803;-67
2022/03/15 06:23:42;;;;;;;124.20;53.33;;;;;;;;;;5050379;28;20040;-66
2022/03/15 06:26:09;;;;;;;121.20;54.70;;;;;;;;;;5050908;28;20033;-66
2022/03/15 06:28:35;;;;;;;110.10;51.67;;;;;;;;;;5050516;28;20060;-66
2022/03/15 06:31:02;;;;;;;122.53;51.13;;;;;;;;;;5050082;28;20045;-66
2022/03/15 06:33:28;;;;;;;142.80;60.60;;;;;;;;;;5050094;28;20057;-66
2022/03/15 06:35:54;;;;;;;111.87;51.93;;;;;;;;;;5050139;28;20073;-66
2022/03/15 06:38:20;;;;;;;97.30;49.03;;;;;;;;;;5050609;28;20041;-66
2022/03/15 06:40:47;;;;;;;113.37;51.47;;;;;;;;;;5050205;28;20927;-66
2022/03/15 06:43:13;;;;;;;107.80;52.63;;;;;;;;;;5050683;28;20052;-66
2022/03/15 06:45:41;;;;;;;105.40;51.03;;;;;;;;;;5050891;28;20084;-66
2022/03/15 06:48:07;;;;;;;108.93;52.00;;;;;;;;;;5050243;28;20486;-66
2022/03/15 06:50:34;;;;;;;105.73;53.33;;;;;;;;;;5050174;28;20094;-66
2022/03/15 06:53:00;;;;;;;103.43;50.57;;;;;;;;;;5049506;28;20575;-66
2022/03/15 06:55:26;;;;;;;117.67;56.33;;;;;;;;;;5047723;28;20136;-66
2022/03/15 06:57:53;;;;;;;93.37;47.63;;;;;;;;;;5047987;28;20057;-66
2022/03/15 07:00:19;;;;;;;105.77;51.80;;;;;;;;;;5049029;28;20076;-66
2022/03/15 07:02:45;;;;;;;84.50;46.87;;;;;;;;;;5048382;28;20047;-66
2022/03/15 07:05:11;;;;;;;98.83;48.63;;;;;;;;;;5050147;28;20033;-66
2022/03/15 07:07:38;;;;;;;95.73;47.47;;;;;;;;;;5048812;28;20174;-66
2022/03/15 07:10:05;;;;;;;92.67;48.63;;;;;;;;;;5048372;28;20127;-66
2022/03/15 07:12:32;;;;;;;121.30;52.70;;;;;;;;;;5046928;28;20045;-66
2022/03/15 07:15:00;;;;;;;92.17;47.93;;;;;;;;;;5064637;28;20380;-67
2022/03/15 07:17:27;;;;;;;87.57;45.90;;;;;;;;;;5048955;28;20049;-66
2022/03/15 07:19:53;;;;;;;109.57;51.87;;;;;;;;;;5049231;28;20044;-66
2022/03/15 07:22:19;;;;;;;114.50;51.37;;;;;;;;;;5047286;28;20040;-67
2022/03/15 07:24:45;;;;;;;96.27;46.50;;;;;;;;;;5047034;28;20045;-66
2022/03/15 07:27:11;;;;;;;83.83;45.30;;;;;;;;;;5049096;28;20495;-67
2022/03/15 07:29:37;;;;;;;87.73;44.10;;;;;;;;;;5047979;28;20048;-66
2022/03/15 07:32:03;;;;;;;80.10;45.23;;;;;;;;;;5049049;28;20067;-66
2022/03/15 07:34:29;;;;;;;96.67;48.50;;;;;;;;;;5048371;28;20087;-66
2022/03/15 07:36:55;;;;;;;94.17;47.70;;;;;;;;;;5049166;28;20048;-66
2022/03/15 07:39:21;;;;;;;72.93;39.90;;;;;;;;;;5048843;28;20052;-66
2022/03/15 07:41:47;;;;;;;73.07;40.60;;;;;;;;;;5048347;28;20068;-66
2022/03/15 07:44:14;;;;;;;69.87;40.03;;;;;;;;;;5048518;28;20047;-66
2022/03/15 07:46:43;;;;;;;70.13;40.80;;;;;;;;;;5048189;28;21409;-66
2022/03/15 07:49:09;;;;;;;63.87;39.57;;;;;;;;;;5048138;28;20084;-66
2022/03/15 07:51:35;;;;;;;68.17;37.63;;;;;;;;;;5048331;28;20115;-67
2022/03/15 07:54:01;;;;;;;67.07;38.60;;;;;;;;;;5048926;28;20049;-67
2022/03/15 07:56:27;;;;;;;72.60;41.47;;;;;;;;;;5048544;28;20040;-67
2022/03/15 07:58:53;;;;;;;61.27;37.67;;;;;;;;;;5048237;28;20136;-66
2022/03/15 08:01:19;;;;;;;61.87;36.70;;;;;;;;;;5048696;28;20641;-66
2022/03/15 08:03:45;;;;;;;70.77;40.57;;;;;;;;;;5048175;28;20115;-67
2022/03/15 08:06:11;;;;;;;66.80;37.33;;;;;;;;;;5049270;28;20102;-67
2022/03/15 08:08:37;;;;;;;56.53;35.53;;;;;;;;;;5048719;28;20037;-67
2022/03/15 08:11:06;;;;;;;59.60;37.10;;;;;;;;;;5047265;28;20044;-66
2022/03/15 08:13:34;;;;;;;79.53;38.57;;;;;;;;;;5048246;28;20053;-67
2022/03/15 08:16:00;;;;;;;64.70;37.37;;;;;;;;;;5048850;28;20128;-66
2022/03/15 08:18:26;;;;;;;57.03;36.80;;;;;;;;;;5047884;28;20558;-67
2022/03/15 08:20:53;;;;;;;58.93;34.20;;;;;;;;;;5048519;28;20052;-66
2022/03/15 08:23:21;;;;;;;53.30;34.97;;;;;;;;;;5048859;28;20565;-66
2022/03/15 08:25:47;;;;;;;56.40;37.10;;;;;;;;;;5047996;28;20075;-66
2022/03/15 08:28:13;;;;;;;61.20;35.90;;;;;;;;;;5048040;28;20125;-66
2022/03/15 08:30:39;;;;;;;52.57;32.30;;;;;;;;;;5048396;28;20048;-66
2022/03/15 08:33:05;;;;;;;48.27;31.70;;;;;;;;;;5048403;28;20182;-66
2022/03/15 08:35:31;;;;;;;55.80;34.37;;;;;;;;;;5047382;28;20128;-66
2022/03/15 08:37:57;;;;;;;49.93;32.80;;;;;;;;;;5048713;28;20129;-66
2022/03/15 08:40:24;;;;;;;55.70;32.97;;;;;;;;;;5048152;28;20044;-66
2022/03/15 08:42:50;;;;;;;54.13;35.00;;;;;;;;;;5048291;28;20099;-68
2022/03/15 08:45:16;;;;;;;53.57;33.20;;;;;;;;;;5048522;28;20057;-66
2022/03/15 08:47:42;;;;;;;51.90;33.17;;;;;;;;;;5047875;28;20049;-66
2022/03/15 08:50:09;;;;;;;44.00;30.30;;;;;;;;;;5048544;28;20052;-66
2022/03/15 08:52:35;;;;;;;47.37;31.07;;;;;;;;;;5048202;28;20047;-66
2022/03/15 08:55:02;;;;;;;42.00;29.43;;;;;;;;;;5047028;28;20135;-67
2022/03/15 08:57:29;;;;;;;46.10;30.27;;;;;;;;;;5047902;28;20041;-66
2022/03/15 08:59:55;;;;;;;43.10;28.17;;;;;;;;;;5048389;28;20045;-67
2022/03/15 09:02:21;;;;;;;46.87;29.47;;;;;;;;;;5048407;28;20114;-67
2022/03/15 09:04:47;;;;;;;43.07;28.20;;;;;;;;;;5047786;28;20139;-66
2022/03/15 09:07:13;;;;;;;46.23;26.90;;;;;;;;;;5048168;28;20049;-66
2022/03/15 09:09:39;;;;;;;43.43;27.57;;;;;;;;;;5048008;28;20049;-66
2022/03/15 09:12:05;;;;;;;43.20;27.27;;;;;;;;;;5048196;28;20564;-66
2022/03/15 09:14:32;;;;;;;39.40;23.97;;;;;;;;;;5049120;28;20056;-66
2022/03/15 09:16:58;;;;;;;40.40;25.23;;;;;;;;;;5051913;28;20124;-66
2022/03/15 09:19:25;;;;;;;33.03;23.13;;;;;;;;;;5052323;28;20120;-66
2022/03/15 09:21:51;;;;;;;39.60;25.83;;;;;;;;;;5051720;28;20045;-66
2022/03/15 09:24:17;;;;;;;31.10;22.10;;;;;;;;;;5067525;28;20095;-66
2022/03/15 09:26:44;;;;;;;36.03;22.93;;;;;;;;;;5051850;28;20041;-66
2022/03/15 09:29:10;;;;;;;35.93;21.30;;;;;;;;;;5051323;28;20084;-66
2022/03/15 09:31:37;;;;;;;38.80;22.40;;;;;;;;;;5051792;28;20107;-66
2022/03/15 09:34:03;;;;;;;35.53;21.07;;;;;;;;;;5051915;28;20134;-66
2022/03/15 09:36:29;;;;;;;34.63;20.27;;;;;;;;;;5051264;28;20052;-66
2022/03/15 09:38:56;;;;;;;32.73;21.53;;;;;;;;;;5051456;28;20048;-66
2022/03/15 09:41:24;;;;;;;30.73;22.10;;;;;;;;;;5033770;28;20056;-66
2022/03/15 09:43:51;;;;;;;35.47;22.30;;;;;;;;;;5051787;28;20033;-66
2022/03/15 09:46:21;;;;;;;35.50;21.30;;;;;;;;;;5051493;28;20044;-66
2022/03/15 09:48:50;;;;;;;31.67;20.67;;;;;;;;;;5050874;28;20072;-66
2022/03/15 09:51:16;;;;;;;38.00;22.20;;;;;;;;;;5051557;28;20079;-66
2022/03/15 09:53:43;;;;;;;33.23;21.63;;;;;;;;;;5051324;28;20531;-66
2022/03/15 09:56:09;;;;;;;31.07;22.40;;;;;;;;;;5051638;28;20051;-67
2022/03/15 09:58:35;;;;;;;37.70;23.73;;;;;;;;;;5051335;28;20132;-67
2022/03/15 10:01:01;;;;;;;33.67;23.40;;;;;;;;;;5051555;28;20524;-67
2022/03/15 10:03:27;;;;;;;38.47;24.30;;;;;;;;;;5051174;28;20082;-67
2022/03/15 10:05:54;;;;;;;34.30;23.47;;;;;;;;;;5051545;28;20064;-67
2022/03/15 10:08:22;;;;;;;37.57;24.23;;;;;;;;;;5050097;28;20449;-67
2022/03/15 10:10:50;;;;;;;34.70;24.40;;;;;;;;;;5051057;28;20384;-67
2022/03/15 10:13:16;;;;;;;34.93;23.63;;;;;;;;;;5066381;28;20471;-68
2022/03/15 10:15:56;;;;;;;33.57;22.87;;;;;;;;;;5050729;28;20041;-67
2022/03/15 10:18:22;;;;;;;31.63;20.77;;;;;;;;;;5050950;28;20041;-67
2022/03/15 10:20:49;;;;;;;29.90;20.80;;;;;;;;;;5045913;28;20052;-67
2022/03/15 10:23:16;;;;;;;35.37;22.70;;;;;;;;;;5049757;28;20067;-67
2022/03/15 10:25:47;;;;;;;29.17;19.37;;;;;;;;;;5049047;28;20045;-67
2022/03/15 10:28:13;;;;;;;32.20;22.63;;;;;;;;;;5041922;28;20121;-67
2022/03/15 10:30:40;;;;;;;26.97;18.57;;;;;;;;;;5050153;28;20059;-67
2022/03/15 10:33:07;;;;;;;31.97;21.07;;;;;;;;;;5050249;28;20041;-67
2022/03/15 10:35:36;;;;;;;23.73;18.07;;;;;;;;;;5049607;28;20513;-67
2022/03/15 10:38:03;;;;;;;26.53;18.43;;;;;;;;;;5049399;28;20045;-67
2022/03/15 10:40:33;;;;;;;29.10;18.87;;;;;;;;;;5049914;28;20816;-67
2022/03/15 10:43:07;;;;;;;26.60;17.97;;;;;;;;;;5050016;28;20085;-67
2022/03/15 10:45:34;;;;;;;24.33;17.80;;;;;;;;;;5047574;28;20492;-67
2022/03/15 10:48:01;;;;;;;24.57;16.77;;;;;;;;;;5048765;28;20110;-67
2022/03/15 10:50:29;;;;;;;26.50;17.47;;;;;;;;;;5049551;28;20530;-67
2022/03/15 10:52:56;;;;;;;27.93;16.97;;;;;;;;;;5047969;28;20044;-67
2022/03/15 10:55:26;;;;;;;24.73;16.47;;;;;;;;;;5049820;28;20099;-67
2022/03/15 10:57:56;;;;;;;27.83;17.00;;;;;;;;;;5049661;28;20518;-67
2022/03/15 11:00:27;;;;;;;24.33;15.77;;;;;;;;;;5049044;28;20510;-67
2022/03/15 11:02:54;;;;;;;25.60;15.93;;;;;;;;;;5048345;28;20055;-67
2022/03/15 11:05:27;;;;;;;20.67;15.27;;;;;;;;;;5049210;28;20056;-67
2022/03/15 11:07:54;;;;;;;24.37;15.27;;;;;;;;;;5050204;28;20044;-67
2022/03/15 11:10:20;;;;;;;24.40;14.87;;;;;;;;;;5049280;28;20496;-67
2022/03/15 11:13:06;;;;;;;26.10;14.97;;;;;;;;;;5048331;28;20081;-66
2022/03/15 11:15:36;;;;;;;21.83;15.53;;;;;;;;;;5047875;28;20054;-66
2022/03/15 11:18:04;;;;;;;23.70;14.93;;;;;;;;;;5049435;28;20392;-66
2022/03/15 11:20:32;;;;;;;21.10;15.33;;;;;;;;;;5049997;28;20534;-67
2022/03/15 11:23:00;;;;;;;22.60;16.03;;;;;;;;;;5049082;28;20041;-67
2022/03/15 11:25:31;;;;;;;25.77;14.97;;;;;;;;;;5048781;28;20045;-67
2022/03/15 11:27:58;;;;;;;22.20;14.97;;;;;;;;;;5048845;28;20127;-67
2022/03/15 11:30:24;;;;;;;21.03;15.10;;;;;;;;;;5048610;28;20049;-66
2022/03/15 11:32:51;;;;;;;20.73;14.87;;;;;;;;;;5048955;28;20084;-66
2022/03/15 11:35:22;;;;;;;20.70;13.77;;;;;;;;;;5045018;28;20045;-66
2022/03/15 11:37:48;;;;;;;24.17;14.23;;;;;;;;;;5047875;28;20056;-66
2022/03/15 11:40:18;;;;;;;20.93;13.30;;;;;;;;;;5049445;28;20470;-67
2022/03/15 11:42:47;;;;;;;19.77;13.60;;;;;;;;;;5049177;28;20048;-66
2022/03/15 11:45:18;;;;;;;19.37;12.63;;;;;;;;;;5049501;28;20037;-66
2022/03/15 11:48:03;;;;;;;18.20;12.27;;;;;;;;;;5048802;28;20131;-67
2022/03/15 11:50:42;;;;;;;20.20;13.83;;;;;;;;;;5035494;28;20107;-67
2022/03/15 11:53:27;;;;;;;27.53;14.27;;;;;;;;;;5049306;28;20045;-67
2022/03/15 11:56:00;;;;;;;15.83;12.17;;;;;;;;;;5049301;28;20056;-67
2022/03/15 11:58:27;;;;;;;19.57;12.43;;;;;;;;;;5048769;28;20577;-67
2022/03/15 12:00:54;;;;;;;17.73;11.20;;;;;;;;;;5048835;28;20040;-67
2022/03/15 12:03:23;;;;;;;20.70;11.27;;;;;;;;;;5048824;28;20051;-67
2022/03/15 12:05:54;;;;;;;22.77;13.80;;;;;;;;;;5048819;28;20045;-67
2022/03/15 12:08:24;;;;;;;18.43;10.07;;;;;;;;;;5048781;28;20084;-67
2022/03/15 12:10:51;;;;;;;15.97;9.13;;;;;;;;;;5048769;28;20491;-66
2022/03/15 12:13:17;;;;;;;14.83;8.27;;;;;;;;;;5048816;28;20056;-67
2022/03/15 12:15:45;;;;;;;18.90;9.60;;;;;;;;;;5048577;28;20110;-66
2022/03/15 12:18:23;;;;;;;14.77;7.60;;;;;;;;;;5046981;28;20071;-65
2022/03/15 12:20:59;;;;;;;14.47;8.70;;;;;;;;;;5048593;28;20053;-65
2022/03/15 12:23:27;;;;;;;14.80;8.90;;;;;;;;;;5049397;28;20041;-65
2022/03/15 12:25:56;;;;;;;20.60;10.10;;;;;;;;;;5048528;28;20583;-65
2022/03/15 12:28:29;;;;;;;15.63;9.80;;;;;;;;;;5048715;28;20102;-65
2022/03/15 12:31:03;;;;;;;16.42;10.70;;;;;;;;;;5048496;28;20060;-65
2022/03/15 12:33:29;;;;;;;;;;;;;;;;;;5049021;28;20052;-65
2022/03/15 12:35:59;;;;;;;19.03;12.67;;;;;;;;;;5049101;28;20283;-65
2022/03/15 12:38:32;;;;;;;17.57;12.03;;;;;;;;;;5048311;28;20097;-65
2022/03/15 12:41:01;;;;;;;22.10;13.67;;;;;;;;;;5049140;28;20128;-65
2022/03/15 12:43:27;;;;;;;19.70;11.10;;;;;;;;;;5048478;28;20056;-65
2022/03/15 12:45:53;;;;;;;16.53;10.97;;;;;;;;;;5048960;28;20041;-65
2022/03/15 12:48:49;;;;;;;17.87;10.07;;;;;;;;;;5047715;28;20044;-65
2022/03/15 12:51:17;;;;;;;14.73;9.57;;;;;;;;;;5043449;28;20060;-65
2022/03/15 12:53:48;;;;;;;14.77;9.83;;;;;;;;;;5048417;28;20186;-65
2022/03/15 12:56:14;;;;;;;13.73;8.40;;;;;;;;;;5048125;28;20576;-65
2022/03/15 12:58:41;;;;;;;15.10;9.00;;;;;;;;;;5047373;28;20049;-65
2022/03/15 13:01:10;;;;;;;15.30;9.70;;;;;;;;;;5048591;28;20052;-65
2022/03/15 13:03:38;;;;;;;13.20;9.70;;;;;;;;;;5048233;28;20499;-65
2022/03/15 13:06:04;;;;;;;14.80;10.40;;;;;;;;;;5046516;28;20041;-65
2022/03/15 13:08:32;;;;;;;15.73;9.37;;;;;;;;;;5046697;28;20048;-65
2022/03/15 13:11:02;;;;;;;15.10;9.57;;;;;;;;;;5047268;28;20506;-65
2022/03/15 13:13:29;;;;;;;19.37;9.60;;;;;;;;;;5047327;28;20102;-66
2022/03/15 13:15:57;;;;;;;17.53;10.10;;;;;;;;;;5048060;28;20052;-65
2022/03/15 13:18:23;;;;;;;14.23;8.73;;;;;;;;;;5047614;28;20515;-65
2022/03/15 13:20:53;;;;;;;14.10;9.47;;;;;;;;;;5047540;28;20511;-65
2022/03/15 13:23:20;;;;;;;18.33;9.53;;;;;;;;;;5047743;28;20045;-65
2022/03/15 13:25:51;;;;;;;15.87;8.63;;;;;;;;;;5047745;28;20503;-65
2022/03/15 13:28:21;;;;;;;16.63;8.50;;;;;;;;;;5047518;28;20045;-65
2022/03/15 13:30:49;;;;;;;12.17;8.00;;;;;;;;;;5047336;28;20073;-65
2022/03/15 13:33:26;;;;;;;14.23;8.67;;;;;;;;;;5047141;28;20092;-65
2022/03/15 13:36:12;;;;;;;13.23;8.33;;;;;;;;;;5047546;28;20061;-66
2022/03/15 13:38:45;;;;;;;13.57;7.60;;;;;;;;;;5046177;28;20037;-66
2022/03/15 13:41:13;;;;;;;10.43;7.60;;;;;;;;;;5047990;28;20377;-66
2022/03/15 13:43:42;;;;;;;11.40;7.23;;;;;;;;;;5047742;28;20045;-66
2022/03/15 13:46:09;;;;;;;13.33;8.87;;;;;;;;;;5047539;28;20049;-66
2022/03/15 13:48:38;;;;;;;12.60;8.27;;;;;;;;;;5047215;28;20124;-66
2022/03/15 13:51:14;;;;;;;14.67;8.50;;;;;;;;;;5047866;28;20056;-66
2022/03/15 13:53:44;;;;;;;13.00;6.20;;;;;;;;;;5047483;28;20049;-66
2022/03/15 13:56:15;;;;;;;12.33;5.30;;;;;;;;;;5047934;28;20087;-67
2022/03/15 13:58:45;;;;;;;14.10;6.97;;;;;;;;;;5047080;28;20045;-67
2022/03/15 14:01:11;;;;;;;13.80;6.70;;;;;;;;;;5049646;28;20561;-67
2022/03/15 14:03:37;;;;;;;9.85;6.63;;;;;;;;;;5051020;28;20041;-67
2022/03/15 14:06:06;;;;;;;12.87;6.87;;;;;;;;;;5050505;28;20499;-67
2022/03/15 14:08:47;;;;;;;13.40;7.50;;;;;;;;;;5050974;28;20068;-67
2022/03/15 14:11:14;;;;;;;12.93;7.55;;;;;;;;;;5051108;28;20099;-66
2022/03/15 14:13:42;;;;;;;14.75;7.78;;;;;;;;;;5050837;28;20055;-66
2022/03/15 14:16:14;;;;;;;10.30;7.50;;;;;;;;;;5051323;28;20408;-66
2022/03/15 14:18:50;;;;;;;10.60;7.70;;;;;;;;;;5051095;28;20049;-66
2022/03/15 14:21:21;;;;;;;8.50;6.90;;;;;;;;;;5050690;28;20087;-67